Skip Navigation LinksHome page > Weather > Current weather Skip Navigation Links

Current Weather

San Francisco International, San Francisco

For information only: do not use for flight planning or navigation.
Latest weather
Observation time Thursday, February 20, 2020 11:56 PM PST
Local time Friday, February 21, 2020 12:18 AM PST
Flight conditions Visual Meteorological Conditions
Winds
Wind speed calm
Visibility 10 mi.
Sky condition
Ceiling 18,000 ft. broken clouds
Cloud layer broken clouds 18,000 ft.
Temperature 56°F
Dewpoint 42°F
Altimeter 30.10 in.Hg
Derived measurements
Relative humidity 60%
Density altitude -260 ft.
Sea-level pressure 30.10 in.Hg
Climate data
Temperature minimum, last 24 hours 45°F
Temperature maximum, last 24 hours 66°F
Remarks
Automated weather observing station with precipitation discriminator.
METAR KSFO 210756Z 00000KT 10SM BKN180 13/06 A3010 RMK AO2 SLP193 T01330056 401890072

Settings

Location code

InnerDrive.Weather 4.0.6770.0 Release CLR 4.0.30319.42000
Copyright ©2018 Inner Drive Technology. All rights reserved. Portions Copyright ©1986-2018 David Braverman.

Find weather

Site navigation


Skip Navigation Links

Place info

Page info

PayPal - The safer, easier way to pay online!

Return home.

Copyright ©2020 Inner Drive Technology. Purveyors of fine, hand-crafted computer software. Page printed 2020-02-21T08:18:40 UTC.